Airfield :
LOGIN :

Register | Disclaimer

   EN    FR    IT 

 










Legend :    VFR   Marginal VFR   IFR   Intensive IFR   Very Intensive IFR
Visi :
Ceiling :
>= 8 km
>= 3000ft
5 to 8 km
1000 to 3000 ft
1500m to 5 km
500 to 1000 ft
800 to 1500m
200 to 500 ft
< 800m
< 200 ft
Symbols :   Thunderstorms  Fog  Heavy snow  Heavy precipitations  Wind > 20 kt
SIGMETs :     Misc.  Thunderstorms  Icing  Turbulence  Mountain Waves  Volcanic Ashes







- Airport Elevation : 220 ft
- IATA code : CWL
- Download approach charts


EGFF - Cardiff Rhoose

CURRENT METAR :
  • 190320Z AUTO 28005KT 0450 R30/1400 FG VV/// 08/08 Q1018

EXPIRED METARs :
  • 190250Z AUTO 28007KT 0350 R30/1100 FG VV/// 08/08 Q1018
  • 190220Z AUTO 28006KT 0200 R30/0750 FG VV/// 07/07 Q1018
  • 190150Z AUTO 27007KT 0200 R30/0750 FG VV/// 07/07 Q1018
  • 190120Z AUTO 25005KT 0200 R30/0500 FG VV/// 07/07 Q1018
  • 190050Z AUTO 25004KT 0250 R30/0750 FG VV/// 08/08 Q1019

TAF AMD TAF EGFF
Valid from the 19 at 00:00 until the 20 at 00:00 UTC


190003Z 1900/1924 28008KT 0300 FG BKN001
TEMPO 1900/1902 1000 RADZ
TEMPO 1902/1909 8000 NSW SCT001
BECMG 1909/1912 9999 NSW SCT010
ATIS : +44 1446 729 319
No reported NOTAMs for that airfield.



MET'MAP, your aeronautical weather chart ! - Copyright ORBIFLY December 2007 - Disclaimer

ORBIFLY MET'MAP TEAM :

Programming & Development : Alexandra Zaïnal
Concept & Development : Baudouin d'Aumeries
Co-Development & Prog : Marc-Olivier Méhu
Technical & hardware support : Manuel Goepfert

Contact : metmap@orbifly.com




SOURCES & CREDITS :

   NOAA